createdAt,value
2018-06-20T00:01:29.459Z,22.30
2018-06-20T00:03:57.552Z,22.30
2018-06-20T00:06:25.659Z,22.30
2018-06-20T00:08:53.891Z,22.30
2018-06-20T00:11:24.321Z,22.30
2018-06-20T00:13:53.291Z,22.30
2018-06-20T00:16:21.383Z,22.40
2018-06-20T00:18:49.580Z,22.30
2018-06-20T00:21:17.671Z,22.20
2018-06-20T00:23:45.816Z,22.20
2018-06-20T00:26:13.917Z,22.20
2018-06-20T00:28:42.141Z,22.20
2018-06-20T00:31:10.230Z,22.20
2018-06-20T00:33:38.328Z,22.20
2018-06-20T00:36:06.412Z,22.20
2018-06-20T00:38:34.525Z,22.20
2018-06-20T00:41:02.611Z,22.20
2018-06-20T00:43:30.671Z,22.10
2018-06-20T00:45:58.775Z,22.10
2018-06-20T00:48:26.903Z,22.10
2018-06-20T00:50:55.021Z,22.10
2018-06-20T00:53:23.113Z,22.10
2018-06-20T00:56:02.628Z,22.10
2018-06-20T00:58:30.771Z,22.10
2018-06-20T01:00:58.864Z,22.10
2018-06-20T01:03:26.953Z,22.10
2018-06-20T01:05:55.035Z,22.00
2018-06-20T01:08:23.188Z,22.00
2018-06-20T01:10:51.399Z,22.10
2018-06-20T01:13:19.503Z,22.00
2018-06-20T01:15:47.616Z,22.00
2018-06-20T01:18:15.733Z,22.00
2018-06-20T01:20:43.832Z,22.00
2018-06-20T01:23:11.932Z,21.90
2018-06-20T01:25:40.053Z,21.90
2018-06-20T01:28:08.172Z,22.00
2018-06-20T01:30:36.328Z,21.90
2018-06-20T01:33:04.422Z,21.90
2018-06-20T01:40:28.344Z,21.80
2018-06-20T01:42:56.464Z,21.80
2018-06-20T01:45:24.559Z,21.90
2018-06-20T01:47:52.664Z,21.80
2018-06-20T01:52:50.664Z,21.80
2018-06-20T01:55:18.773Z,21.80
2018-06-20T01:57:46.880Z,21.80
2018-06-20T02:00:15.012Z,21.80
2018-06-20T02:02:43.120Z,21.80
2018-06-20T02:05:11.204Z,21.70
2018-06-20T02:10:07.178Z,21.70
2018-06-20T02:12:35.331Z,21.60
2018-06-20T02:15:03.440Z,21.60
2018-06-20T02:17:31.584Z,21.60
2018-06-20T02:19:59.693Z,21.70
2018-06-20T02:22:27.795Z,21.70
2018-06-20T02:24:55.924Z,21.60
2018-06-20T02:27:24.038Z,21.60
2018-06-20T02:29:52.128Z,21.60
2018-06-20T02:34:48.211Z,21.60
2018-06-20T02:37:16.307Z,21.50
2018-06-20T02:39:44.396Z,21.50
2018-06-20T02:42:12.531Z,21.40
2018-06-20T02:44:40.630Z,21.50
2018-06-20T02:47:08.755Z,21.50
2018-06-20T02:49:36.864Z,21.50
2018-06-20T02:52:04.970Z,21.50
2018-06-20T02:54:33.092Z,21.50
2018-06-20T02:57:01.204Z,21.60
2018-06-20T02:59:29.284Z,21.50
2018-06-20T03:01:57.382Z,21.50
2018-06-20T03:04:25.507Z,21.50
2018-06-20T03:06:53.604Z,21.50
2018-06-20T03:09:27.093Z,21.60
2018-06-20T03:11:55.181Z,21.50
2018-06-20T03:16:51.171Z,21.40
2018-06-20T03:19:19.279Z,21.40
2018-06-20T03:21:47.412Z,21.30
2018-06-20T03:24:15.531Z,21.50
2018-06-20T03:26:43.639Z,21.50
2018-06-20T03:29:11.773Z,21.40
2018-06-20T03:31:39.887Z,21.50
2018-06-20T03:34:08.060Z,21.40
2018-06-20T03:36:36.155Z,21.40
2018-06-20T03:39:06.688Z,21.40
2018-06-20T03:41:34.787Z,21.40
2018-06-20T03:44:03.278Z,21.40
2018-06-20T03:46:31.407Z,21.40
2018-06-20T03:48:59.536Z,21.40
2018-06-20T03:56:23.552Z,21.40
2018-06-20T04:01:19.787Z,21.50
2018-06-20T04:03:47.920Z,21.50
2018-06-20T04:06:16.036Z,21.50
2018-06-20T04:08:44.175Z,21.50
2018-06-20T04:11:12.279Z,21.50
2018-06-20T04:13:40.367Z,21.50
2018-06-20T04:16:08.512Z,21.50
2018-06-20T04:18:44.867Z,21.50
2018-06-20T04:21:14.279Z,21.60
2018-06-20T04:23:42.387Z,21.60
2018-06-20T04:26:11.259Z,21.50
2018-06-20T04:31:08.224Z,21.70
2018-06-20T04:33:37.303Z,21.60
2018-06-20T04:36:05.580Z,21.60
2018-06-20T04:38:33.724Z,21.50
2018-06-20T04:41:02.025Z,21.70
2018-06-20T04:43:30.988Z,21.70
2018-06-20T04:45:59.107Z,21.70
2018-06-20T04:48:27.201Z,21.70
2018-06-20T04:50:55.293Z,21.80
2018-06-20T04:53:23.435Z,21.80
2018-06-20T05:00:47.293Z,21.80
2018-06-20T05:03:15.391Z,21.80
2018-06-20T05:05:43.696Z,21.90
2018-06-20T05:10:39.905Z,22.00
2018-06-20T05:13:08.006Z,22.00
2018-06-20T05:15:36.206Z,22.00
2018-06-20T05:18:04.310Z,22.10
2018-06-20T05:20:32.857Z,22.00
2018-06-20T05:23:01.004Z,22.10
2018-06-20T05:25:29.100Z,22.10
2018-06-20T05:27:57.204Z,22.20
2018-06-20T05:30:25.328Z,22.20
2018-06-20T05:37:49.274Z,22.20
2018-06-20T05:40:18.166Z,22.40
2018-06-20T05:42:46.261Z,22.40
2018-06-20T05:45:14.436Z,22.40
2018-06-20T05:47:42.527Z,22.50
2018-06-20T05:50:10.657Z,22.50
2018-06-20T05:52:38.753Z,22.50
2018-06-20T05:55:07.367Z,22.60
2018-06-20T05:57:35.499Z,22.60
2018-06-20T06:00:03.685Z,22.60
2018-06-20T06:02:31.884Z,22.60
2018-06-20T06:05:00.027Z,22.60
2018-06-20T06:07:28.215Z,22.70
2018-06-20T06:09:56.311Z,22.70
2018-06-20T06:12:24.434Z,22.80
2018-06-20T06:14:52.531Z,22.80
2018-06-20T06:17:20.620Z,22.90
2018-06-20T06:19:48.843Z,23.00
2018-06-20T06:22:17.276Z,23.00
2018-06-20T06:24:45.636Z,22.90
2018-06-20T06:27:14.047Z,22.90
2018-06-20T06:29:42.172Z,23.10
2018-06-20T06:32:10.267Z,23.00
2018-06-20T06:34:38.367Z,23.10
2018-06-20T06:37:06.488Z,23.20
2018-06-20T06:39:34.583Z,23.10
2018-06-20T06:42:02.726Z,23.20
2018-06-20T06:44:30.860Z,23.20
2018-06-20T06:49:26.867Z,23.40
2018-06-20T06:51:54.994Z,23.50
2018-06-20T06:54:23.118Z,23.40
2018-06-20T06:56:51.224Z,23.60
2018-06-20T07:04:15.076Z,24.00
2018-06-20T07:06:43.265Z,24.10
2018-06-20T07:09:11.419Z,24.30
2018-06-20T07:11:39.515Z,24.30
2018-06-20T07:14:07.820Z,24.40
2018-06-20T07:16:35.960Z,24.50
2018-06-20T07:19:04.052Z,24.40
2018-06-20T07:21:32.228Z,24.70
2018-06-20T07:24:00.369Z,24.90
2018-06-20T07:26:28.491Z,25.00
2018-06-20T07:28:56.568Z,25.20
2018-06-20T07:31:24.684Z,25.00
2018-06-20T07:33:52.799Z,25.30
2018-06-20T07:36:20.935Z,25.40
2018-06-20T07:38:49.036Z,25.50
2018-06-20T07:41:17.428Z,25.70
2018-06-20T07:43:45.885Z,25.80
2018-06-20T07:46:14.035Z,25.80
2018-06-20T07:48:42.129Z,25.90
2018-06-20T07:51:10.227Z,26.20
2018-06-20T07:53:38.322Z,26.20
2018-06-20T07:56:06.424Z,26.30
2018-06-20T07:58:40.048Z,26.60
2018-06-20T08:01:13.647Z,26.70
2018-06-20T08:03:47.093Z,26.80
2018-06-20T08:08:54.084Z,27.00
2018-06-20T08:16:04.653Z,27.40
2018-06-20T08:18:38.015Z,27.60
2018-06-20T08:21:06.317Z,28.00
2018-06-20T08:23:34.420Z,28.10
2018-06-20T08:26:02.568Z,28.30
2018-06-20T08:28:30.660Z,28.30
2018-06-20T08:30:58.788Z,28.30
2018-06-20T08:33:27.083Z,28.50
2018-06-20T08:35:55.176Z,28.60
2018-06-20T08:38:23.292Z,28.60
2018-06-20T08:40:51.406Z,28.90
2018-06-20T08:43:19.507Z,29.00
2018-06-20T08:45:47.590Z,29.10
2018-06-20T08:50:43.563Z,29.50
2018-06-20T08:53:11.752Z,29.60
2018-06-20T08:55:39.768Z,29.70
2018-06-20T08:58:07.900Z,29.90
2018-06-20T09:00:41.510Z,30.10
2018-06-20T09:03:09.655Z,30.40
2018-06-20T09:08:16.710Z,30.70
2018-06-20T09:10:50.768Z,30.90
2018-06-20T09:13:24.282Z,30.90
2018-06-20T09:15:57.732Z,31.00
2018-06-20T09:18:31.309Z,31.20
2018-06-20T09:20:59.399Z,31.10
2018-06-20T09:25:55.352Z,31.40
2018-06-20T09:28:23.472Z,31.80
2018-06-20T09:30:51.576Z,31.70
2018-06-20T09:33:19.679Z,32.00
2018-06-20T09:35:47.822Z,32.00
2018-06-20T09:38:15.963Z,32.20
2018-06-20T09:40:44.067Z,32.40
2018-06-20T09:43:12.191Z,32.50
2018-06-20T09:45:40.299Z,32.70
2018-06-20T09:48:08.396Z,32.90
2018-06-20T09:50:41.869Z,33.10
2018-06-20T09:53:09.961Z,33.40
2018-06-20T09:55:38.035Z,33.60
2018-06-20T09:58:06.172Z,33.90
2018-06-20T10:00:39.546Z,33.90
2018-06-20T10:03:12.912Z,34.10
2018-06-20T10:05:46.376Z,34.00
2018-06-20T10:08:19.971Z,34.30
2018-06-20T10:10:53.675Z,34.30
2018-06-20T10:13:24.897Z,34.20
2018-06-20T10:15:53.016Z,34.40
2018-06-20T10:20:49.396Z,33.70
2018-06-20T10:23:17.499Z,33.70
2018-06-20T10:25:45.600Z,33.40
2018-06-20T10:28:13.687Z,33.40
2018-06-20T10:33:09.644Z,33.50
2018-06-20T10:35:37.741Z,33.80
2018-06-20T10:38:05.831Z,34.30
2018-06-20T10:40:33.928Z,34.60
2018-06-20T10:43:02.025Z,34.50
2018-06-20T10:45:35.351Z,34.50
2018-06-20T10:48:07.690Z,34.80
2018-06-20T10:50:35.816Z,35.10
2018-06-20T10:53:03.909Z,35.40
2018-06-20T10:55:32.004Z,35.50
2018-06-20T10:58:05.644Z,35.80
2018-06-20T11:00:39.106Z,35.90
2018-06-20T11:03:12.584Z,36.00
2018-06-20T11:05:46.235Z,36.20
2018-06-20T11:08:19.655Z,36.30
2018-06-20T11:10:53.336Z,36.40
2018-06-20T11:13:21.608Z,36.60
2018-06-20T11:15:49.703Z,36.70
2018-06-20T11:20:51.117Z,37.20
2018-06-20T11:23:19.315Z,37.50
2018-06-20T11:25:47.328Z,37.60
2018-06-20T11:28:16.060Z,37.70
2018-06-20T11:30:45.331Z,37.80
2018-06-20T11:33:13.905Z,38.10
2018-06-20T11:35:42.211Z,38.30
2018-06-20T11:38:10.324Z,38.00
2018-06-20T11:40:38.552Z,37.80
2018-06-20T11:43:07.035Z,38.10
2018-06-20T11:48:08.656Z,41.90
2018-06-20T11:50:36.768Z,40.50
2018-06-20T11:53:06.490Z,41.20
2018-06-20T11:55:35.712Z,43.70
2018-06-20T12:00:14.704Z,46.50
2018-06-20T12:04:49.059Z,47.10
2018-06-20T12:07:22.589Z,48.10
2018-06-20T12:09:56.216Z,44.90
2018-06-20T12:12:29.792Z,43.60
2018-06-20T12:15:03.213Z,44.70
2018-06-20T12:17:36.609Z,43.40
2018-06-20T12:20:10.183Z,46.40
2018-06-20T12:22:43.564Z,47.00
2018-06-20T12:25:17.003Z,48.80
2018-06-20T12:27:50.551Z,50.80
2018-06-20T12:30:24.040Z,48.30
2018-06-20T12:32:57.502Z,46.50
2018-06-20T12:35:31.040Z,47.00
2018-06-20T12:38:04.324Z,45.20
2018-06-20T12:40:37.775Z,44.80
2018-06-20T12:43:11.114Z,46.90
2018-06-20T12:45:39.572Z,46.20
2018-06-20T12:48:07.659Z,44.70
2018-06-20T12:50:35.775Z,45.50
2018-06-20T12:53:03.918Z,45.50
2018-06-20T12:55:32.008Z,43.60
2018-06-20T12:58:00.105Z,41.90
2018-06-20T13:00:28.208Z,40.70
2018-06-20T13:02:56.324Z,40.40
2018-06-20T13:05:24.428Z,40.50
2018-06-20T13:07:52.566Z,40.10
2018-06-20T13:10:20.671Z,40.20
2018-06-20T13:12:48.801Z,43.00
2018-06-20T13:15:16.907Z,44.30
2018-06-20T13:17:45.036Z,46.50
2018-06-20T13:20:13.148Z,48.00
2018-06-20T13:22:41.263Z,45.70
2018-06-20T13:25:09.351Z,45.80
2018-06-20T13:27:42.671Z,47.70
2018-06-20T13:30:11.953Z,49.60
2018-06-20T13:32:45.529Z,48.30
2018-06-20T13:35:18.979Z,46.90
2018-06-20T13:37:52.456Z,48.50
2018-06-20T13:40:25.732Z,48.00
2018-06-20T13:42:59.218Z,49.60
2018-06-20T13:45:32.743Z,51.10
2018-06-20T13:48:06.216Z,50.00
2018-06-20T13:50:34.829Z,50.70
2018-06-20T13:53:03.148Z,48.50
2018-06-20T13:55:31.291Z,48.60
2018-06-20T13:57:59.391Z,46.90
2018-06-20T14:00:27.617Z,47.20
2018-06-20T14:02:55.991Z,46.80
2018-06-20T14:05:24.065Z,46.90
2018-06-20T14:07:52.171Z,48.20
2018-06-20T14:10:20.273Z,49.30
2018-06-20T14:12:48.395Z,49.90
2018-06-20T14:15:16.544Z,50.30
2018-06-20T14:17:44.657Z,48.30
2018-06-20T14:20:18.063Z,47.30
2018-06-20T14:22:46.185Z,45.30
2018-06-20T14:25:14.295Z,44.30
2018-06-20T14:27:42.392Z,43.00
2018-06-20T14:30:10.540Z,42.00
2018-06-20T14:32:43.953Z,41.10
2018-06-20T14:35:17.427Z,40.60
2018-06-20T14:37:50.999Z,40.20
2018-06-20T14:40:24.545Z,39.90
2018-06-20T14:42:58.103Z,39.60
2018-06-20T14:45:31.654Z,39.30
2018-06-20T14:47:59.756Z,39.00
2018-06-20T14:50:27.851Z,38.60
2018-06-20T14:52:55.939Z,38.20
2018-06-20T14:55:24.044Z,38.10
2018-06-20T14:57:52.180Z,38.10
2018-06-20T15:00:20.271Z,38.10
2018-06-20T15:02:48.387Z,38.00
2018-06-20T15:05:16.492Z,37.90
2018-06-20T15:07:44.605Z,37.80
2018-06-20T15:10:12.691Z,37.70
2018-06-20T15:12:40.813Z,37.40
2018-06-20T15:15:08.912Z,37.30
2018-06-20T15:17:37.003Z,37.00
2018-06-20T15:20:05.166Z,36.90
2018-06-20T15:22:38.692Z,36.70
2018-06-20T15:25:06.768Z,36.70
2018-06-20T15:27:40.186Z,36.70
2018-06-20T15:30:13.495Z,36.50
2018-06-20T15:32:46.917Z,36.50
2018-06-20T15:35:20.395Z,36.50
2018-06-20T15:37:53.729Z,36.30
2018-06-20T15:40:21.851Z,36.20
2018-06-20T15:42:49.987Z,36.00
2018-06-20T15:45:18.136Z,35.90
2018-06-20T15:47:46.273Z,35.70
2018-06-20T15:50:14.388Z,35.60
2018-06-20T15:52:42.666Z,35.40
2018-06-20T15:55:10.974Z,35.40
2018-06-20T15:57:39.091Z,35.30
2018-06-20T16:00:07.181Z,35.20
2018-06-20T16:02:35.372Z,35.00
2018-06-20T16:05:03.488Z,34.90
2018-06-20T16:07:31.608Z,34.90
2018-06-20T16:10:00.564Z,34.80
2018-06-20T16:17:25.661Z,34.40
2018-06-20T16:19:59.112Z,34.30
2018-06-20T16:22:32.559Z,34.20
2018-06-20T16:25:05.984Z,34.00
2018-06-20T16:27:39.427Z,33.90
2018-06-20T16:30:12.824Z,33.70
2018-06-20T16:32:40.970Z,33.60
2018-06-20T16:35:09.172Z,33.50
2018-06-20T16:37:37.345Z,33.50
2018-06-20T16:40:05.432Z,33.50
2018-06-20T16:42:33.576Z,33.50
2018-06-20T16:45:01.759Z,33.40
2018-06-20T16:47:29.853Z,33.40
2018-06-20T16:49:57.937Z,33.30
2018-06-20T16:52:26.116Z,33.30
2018-06-20T16:54:54.249Z,33.40
2018-06-20T16:57:22.432Z,33.30
2018-06-20T16:59:50.622Z,33.20
2018-06-20T17:04:52.187Z,33.00
2018-06-20T17:07:20.368Z,32.90
2018-06-20T17:12:22.332Z,32.80
2018-06-20T17:14:55.840Z,32.70
2018-06-20T17:17:29.312Z,32.70
2018-06-20T17:20:02.839Z,32.60
2018-06-20T17:22:36.295Z,32.50
2018-06-20T17:25:09.952Z,32.50
2018-06-20T17:27:38.139Z,32.50
2018-06-20T17:35:02.576Z,32.30
2018-06-20T17:37:31.031Z,32.20
2018-06-20T17:39:59.171Z,32.20
2018-06-20T17:42:27.435Z,32.10
2018-06-20T17:44:55.545Z,32.00
2018-06-20T17:47:23.676Z,32.00
2018-06-20T17:49:51.774Z,31.90
2018-06-20T17:52:20.073Z,31.90
2018-06-20T17:54:48.219Z,31.80
2018-06-20T17:57:16.311Z,31.80
2018-06-20T18:02:12.316Z,31.70
2018-06-20T18:04:45.796Z,31.60
2018-06-20T18:07:19.260Z,31.60
2018-06-20T18:09:52.831Z,31.50
2018-06-20T18:12:26.174Z,31.40
2018-06-20T18:14:59.504Z,31.40
2018-06-20T18:17:27.668Z,31.30
2018-06-20T18:19:55.789Z,31.30
2018-06-20T18:22:24.108Z,31.20
2018-06-20T18:24:52.215Z,30.00
2018-06-20T18:27:20.352Z,29.30
2018-06-20T18:29:48.485Z,29.00
2018-06-20T18:32:16.606Z,28.60
2018-06-20T18:34:44.747Z,28.40
2018-06-20T18:37:12.815Z,28.20
2018-06-20T18:42:14.456Z,27.90
2018-06-20T18:44:42.563Z,27.80
2018-06-20T18:49:43.079Z,27.60
2018-06-20T18:52:11.311Z,27.40
2018-06-20T18:54:39.589Z,27.20
2018-06-20T18:57:11.990Z,27.30
2018-06-20T18:59:45.307Z,27.10
2018-06-20T19:02:18.648Z,27.00
2018-06-20T19:04:52.302Z,26.90
2018-06-20T19:07:25.869Z,26.90
2018-06-20T19:09:53.973Z,26.90
2018-06-20T19:12:22.309Z,27.00
2018-06-20T19:14:50.419Z,26.90
2018-06-20T19:17:18.504Z,26.70
2018-06-20T19:22:21.171Z,26.90
2018-06-20T19:24:49.310Z,26.70
2018-06-20T19:27:17.445Z,26.50
2018-06-20T19:29:45.744Z,26.40
2018-06-20T19:34:42.080Z,26.40
2018-06-20T19:39:43.486Z,26.10
2018-06-20T19:42:11.720Z,26.10
2018-06-20T19:44:39.937Z,26.10
2018-06-20T19:47:08.144Z,26.10
2018-06-20T19:49:36.246Z,26.10
2018-06-20T19:54:32.281Z,26.00
2018-06-20T19:57:00.394Z,25.90
2018-06-20T19:59:28.492Z,25.80
2018-06-20T20:01:56.588Z,25.80
2018-06-20T20:04:24.894Z,26.00
2018-06-20T20:06:53.464Z,26.00
2018-06-20T20:09:21.620Z,25.90
2018-06-20T20:11:49.830Z,26.10
2018-06-20T20:16:46.033Z,26.10
2018-06-20T20:19:14.247Z,26.10
2018-06-20T20:24:10.306Z,25.90
2018-06-20T20:26:38.964Z,25.90
2018-06-20T20:29:07.120Z,25.90
2018-06-20T20:31:35.259Z,26.00
2018-06-20T20:34:03.512Z,26.30
2018-06-20T20:36:31.528Z,26.60
2018-06-20T20:38:59.733Z,26.70
2018-06-20T20:41:27.968Z,26.90
2018-06-20T20:43:56.035Z,26.90
2018-06-20T20:46:24.233Z,27.00
2018-06-20T20:48:52.411Z,27.00
2018-06-20T20:51:20.539Z,27.10
2018-06-20T20:53:48.703Z,27.10
2018-06-20T20:56:16.878Z,27.20
2018-06-20T20:58:44.999Z,27.20
2018-06-20T21:01:13.099Z,27.20
2018-06-20T21:03:41.185Z,27.20
2018-06-20T21:06:09.447Z,27.20
2018-06-20T21:08:37.560Z,27.20
2018-06-20T21:11:05.760Z,27.20
2018-06-20T21:13:33.937Z,27.20
2018-06-20T21:16:02.067Z,27.20
2018-06-20T21:18:30.236Z,27.20
2018-06-20T21:20:58.444Z,27.20
2018-06-20T21:23:26.601Z,27.30
2018-06-20T21:25:54.800Z,27.30
2018-06-20T21:28:22.962Z,27.30
2018-06-20T21:30:51.162Z,27.20
2018-06-20T21:33:19.385Z,27.20
2018-06-20T21:35:47.488Z,27.20
2018-06-20T21:38:15.587Z,27.20
2018-06-20T21:40:43.676Z,27.20
2018-06-20T21:43:11.851Z,27.20
2018-06-20T21:45:40.034Z,27.20
2018-06-20T21:48:08.235Z,27.20
2018-06-20T21:50:36.377Z,27.20
2018-06-20T21:53:04.597Z,27.30
2018-06-20T21:55:32.774Z,27.20
2018-06-20T21:58:00.932Z,27.20
2018-06-20T22:00:30.272Z,27.20
2018-06-20T22:02:58.372Z,27.20
2018-06-20T22:05:26.481Z,27.20
2018-06-20T22:07:54.588Z,27.20
2018-06-20T22:10:22.683Z,27.10
2018-06-20T22:12:50.776Z,27.30
2018-06-20T22:17:46.832Z,27.10
2018-06-20T22:20:14.948Z,27.20
2018-06-20T22:22:43.093Z,27.10
2018-06-20T22:25:11.192Z,27.20
2018-06-20T22:27:39.323Z,27.10
2018-06-20T22:30:07.440Z,27.10
2018-06-20T22:32:35.556Z,27.10
2018-06-20T22:37:31.635Z,27.10
2018-06-20T22:39:59.724Z,27.10
2018-06-20T22:42:27.855Z,27.00
2018-06-20T22:44:55.975Z,27.10
2018-06-20T22:47:24.055Z,27.10
2018-06-20T22:49:52.176Z,27.10
2018-06-20T22:54:48.288Z,27.10
2018-06-20T22:57:16.408Z,27.10
2018-06-20T22:59:44.516Z,27.10
2018-06-20T23:02:12.591Z,27.10
2018-06-20T23:04:40.707Z,27.00
2018-06-20T23:07:08.811Z,27.00
2018-06-20T23:09:36.904Z,27.00
2018-06-20T23:12:04.992Z,27.00
2018-06-20T23:14:33.066Z,26.90
2018-06-20T23:17:01.174Z,27.00
2018-06-20T23:19:29.271Z,27.00
2018-06-20T23:21:57.392Z,26.90
2018-06-20T23:24:25.536Z,27.00
2018-06-20T23:26:53.663Z,27.00
2018-06-20T23:29:21.786Z,27.00
2018-06-20T23:31:49.864Z,26.90
2018-06-20T23:34:18.032Z,26.90
2018-06-20T23:36:46.104Z,26.90
2018-06-20T23:39:14.204Z,26.90
2018-06-20T23:41:42.291Z,26.80
2018-06-20T23:44:10.411Z,26.80
2018-06-20T23:46:38.500Z,26.80
2018-06-20T23:49:06.596Z,26.90
2018-06-20T23:51:34.712Z,26.70
2018-06-20T23:54:02.811Z,26.70
2018-06-20T23:56:30.896Z,25.80
2018-06-20T23:58:59.056Z,25.30
